createdAt,value
2022-11-08T00:01:27.575Z,13.38
2022-11-08T00:03:57.256Z,13.45
2022-11-08T00:06:42.751Z,13.47
2022-11-08T00:09:28.516Z,13.47
2022-11-08T00:12:13.850Z,13.46
2022-11-08T00:14:41.582Z,13.51
2022-11-08T00:17:09.666Z,13.43
2022-11-08T00:19:38.713Z,13.50
2022-11-08T00:22:06.439Z,13.57
2022-11-08T00:24:34.804Z,13.58
2022-11-08T00:27:02.527Z,13.56
2022-11-08T00:29:30.289Z,13.58
2022-11-08T00:31:58.042Z,13.61
2022-11-08T00:34:25.719Z,13.58
2022-11-08T00:36:54.818Z,13.62
2022-11-08T00:39:22.561Z,13.64
2022-11-08T00:41:50.255Z,13.67
2022-11-08T00:44:17.973Z,13.71
2022-11-08T00:46:45.808Z,13.71
2022-11-08T00:49:13.563Z,13.72
2022-11-08T00:51:41.620Z,13.70
2022-11-08T00:54:14.588Z,13.76
2022-11-08T00:56:42.588Z,13.77
2022-11-08T00:59:12.427Z,13.76
2022-11-08T01:01:40.879Z,13.74
2022-11-08T01:04:10.154Z,13.64
2022-11-08T01:06:39.283Z,13.76
2022-11-08T01:09:07.947Z,13.79
2022-11-08T01:11:37.305Z,13.76
2022-11-08T01:14:05.053Z,13.75
2022-11-08T01:16:34.315Z,13.79
2022-11-08T01:19:02.626Z,13.80
2022-11-08T01:21:30.477Z,13.83
2022-11-08T01:23:58.250Z,13.85
2022-11-08T01:26:28.145Z,13.83
2022-11-08T01:28:58.447Z,13.87
2022-11-08T01:31:29.066Z,13.87
2022-11-08T01:33:58.174Z,13.88
2022-11-08T01:36:28.200Z,13.87
2022-11-08T01:38:56.799Z,13.86
2022-11-08T01:41:26.691Z,13.88
2022-11-08T01:43:55.539Z,13.73
2022-11-08T01:46:36.738Z,13.87
2022-11-08T01:49:39.915Z,13.85
2022-11-08T01:52:31.215Z,13.86
2022-11-08T01:55:08.693Z,13.86
2022-11-08T01:57:42.681Z,13.86
2022-11-08T02:00:13.370Z,13.90
2022-11-08T02:02:44.961Z,13.88
2022-11-08T02:05:25.762Z,13.85
2022-11-08T02:07:57.237Z,13.84
2022-11-08T02:10:30.520Z,13.81
2022-11-08T02:13:00.526Z,13.83
2022-11-08T02:15:32.437Z,13.77
2022-11-08T02:18:02.818Z,13.79
2022-11-08T02:20:30.578Z,13.72
2022-11-08T02:23:06.080Z,13.73
2022-11-08T02:25:35.460Z,13.66
2022-11-08T02:28:03.195Z,13.63
2022-11-08T02:30:34.137Z,13.62
2022-11-08T02:33:01.879Z,13.61
2022-11-08T02:35:29.793Z,13.53
2022-11-08T02:37:57.614Z,13.48
2022-11-08T02:40:25.343Z,13.47
2022-11-08T02:42:54.386Z,13.49
2022-11-08T02:45:22.117Z,13.44
2022-11-08T02:47:49.801Z,13.46
2022-11-08T02:50:17.547Z,13.42
2022-11-08T02:52:45.249Z,13.42
2022-11-08T02:55:12.983Z,13.42
2022-11-08T02:57:40.653Z,13.43
2022-11-08T03:00:11.602Z,13.41
2022-11-08T03:02:39.343Z,13.35
2022-11-08T03:05:07.812Z,13.33
2022-11-08T03:07:35.495Z,13.27
2022-11-08T03:10:03.632Z,13.25
2022-11-08T03:12:31.313Z,13.20
2022-11-08T03:14:59.003Z,13.30
2022-11-08T03:17:28.037Z,13.26
2022-11-08T03:19:56.148Z,13.20
2022-11-08T03:22:24.137Z,13.24
2022-11-08T03:24:51.837Z,13.19
2022-11-08T03:27:20.197Z,13.20
2022-11-08T03:29:47.926Z,13.17
2022-11-08T03:32:16.552Z,13.10
2022-11-08T03:34:45.695Z,13.07
2022-11-08T03:37:13.392Z,13.02
2022-11-08T03:39:41.098Z,13.00
2022-11-08T03:42:08.771Z,13.06
2022-11-08T03:44:36.531Z,13.05
2022-11-08T03:47:04.254Z,13.06
2022-11-08T03:49:31.976Z,13.06
2022-11-08T03:52:01.034Z,13.00
2022-11-08T03:54:28.792Z,12.98
2022-11-08T03:56:56.493Z,13.03
2022-11-08T03:59:24.185Z,13.01
2022-11-08T04:01:51.966Z,13.02
2022-11-08T04:04:19.846Z,13.00
2022-11-08T04:06:47.579Z,12.98
2022-11-08T04:09:21.304Z,13.02
2022-11-08T04:12:06.763Z,13.02
2022-11-08T04:14:51.865Z,13.03
2022-11-08T04:17:19.584Z,13.01
2022-11-08T04:20:10.206Z,13.00
2022-11-08T04:22:37.919Z,12.96
2022-11-08T04:25:08.179Z,12.96
2022-11-08T04:27:36.029Z,12.89
2022-11-08T04:30:04.042Z,12.87
2022-11-08T04:32:31.769Z,12.82
2022-11-08T04:34:59.481Z,12.81
2022-11-08T04:37:27.205Z,12.78
2022-11-08T04:39:54.983Z,12.79
2022-11-08T04:42:24.105Z,12.79
2022-11-08T04:44:51.799Z,12.85
2022-11-08T04:47:19.516Z,12.84
2022-11-08T04:49:47.336Z,12.77
2022-11-08T04:52:16.707Z,12.80
2022-11-08T04:54:44.701Z,12.79
2022-11-08T04:57:12.442Z,12.79
2022-11-08T04:59:41.499Z,12.77
2022-11-08T05:02:09.334Z,12.69
2022-11-08T05:04:37.226Z,12.67
2022-11-08T05:07:04.883Z,12.73
2022-11-08T05:09:32.634Z,12.67
2022-11-08T05:12:00.814Z,12.68
2022-11-08T05:14:28.571Z,12.65
2022-11-08T05:16:57.662Z,12.57
2022-11-08T05:19:39.313Z,12.64
2022-11-08T05:22:24.263Z,12.64
2022-11-08T05:24:51.962Z,12.60
2022-11-08T05:27:19.851Z,12.59
2022-11-08T05:29:47.582Z,12.56
2022-11-08T05:32:16.648Z,12.56
2022-11-08T05:34:44.350Z,12.54
2022-11-08T05:37:12.065Z,12.57
2022-11-08T05:39:39.798Z,12.55
2022-11-08T05:42:07.629Z,12.48
2022-11-08T05:44:35.408Z,12.52
2022-11-08T05:47:03.296Z,12.49
2022-11-08T05:49:34.955Z,12.47
2022-11-08T05:52:03.120Z,12.50
2022-11-08T05:54:31.445Z,12.52
2022-11-08T05:56:59.507Z,12.48
2022-11-08T05:59:29.887Z,12.50
2022-11-08T06:01:58.063Z,12.39
2022-11-08T06:04:25.946Z,12.48
2022-11-08T06:06:55.094Z,12.50
2022-11-08T06:09:23.051Z,12.47
2022-11-08T06:11:50.845Z,12.46
2022-11-08T06:14:18.979Z,12.48
2022-11-08T06:16:46.686Z,12.49
2022-11-08T06:19:14.397Z,12.52
2022-11-08T06:21:42.085Z,12.42
2022-11-08T06:24:11.346Z,12.45
2022-11-08T06:26:39.081Z,12.29
2022-11-08T06:29:06.815Z,12.38
2022-11-08T06:31:38.292Z,12.39
2022-11-08T06:34:10.225Z,12.40
2022-11-08T06:36:38.312Z,12.40
2022-11-08T06:39:06.047Z,12.42
2022-11-08T06:41:35.450Z,12.41
2022-11-08T06:44:03.402Z,12.44
2022-11-08T06:46:31.315Z,12.43
2022-11-08T06:48:59.067Z,12.49
2022-11-08T06:51:26.861Z,12.42
2022-11-08T06:53:54.728Z,12.48
2022-11-08T06:56:22.455Z,12.49
2022-11-08T06:58:52.635Z,12.56
2022-11-08T07:01:20.436Z,12.46
2022-11-08T07:03:48.183Z,12.53
2022-11-08T07:06:15.925Z,12.57
2022-11-08T07:08:43.654Z,12.54
2022-11-08T07:11:11.405Z,12.56
2022-11-08T07:13:39.191Z,12.57
2022-11-08T07:16:08.855Z,12.59
2022-11-08T07:18:36.659Z,12.58
2022-11-08T07:21:04.647Z,12.62
2022-11-08T07:23:32.777Z,12.62
2022-11-08T07:26:04.405Z,12.73
2022-11-08T07:28:32.739Z,12.72
2022-11-08T07:31:02.672Z,12.66
2022-11-08T07:33:32.559Z,12.65
2022-11-08T07:36:00.540Z,12.63
2022-11-08T07:38:28.265Z,12.57
2022-11-08T07:40:59.451Z,12.65
2022-11-08T07:43:28.789Z,12.64
2022-11-08T07:46:02.083Z,12.54
2022-11-08T07:48:32.210Z,12.63
2022-11-08T07:51:00.186Z,12.65
2022-11-08T07:53:27.891Z,12.66
2022-11-08T07:55:55.608Z,12.68
2022-11-08T07:58:23.733Z,12.69
2022-11-08T08:00:51.532Z,12.69
2022-11-08T08:03:19.801Z,12.71
2022-11-08T08:05:59.565Z,12.72
2022-11-08T08:08:29.319Z,12.76
2022-11-08T08:11:01.538Z,12.75
2022-11-08T08:13:30.039Z,12.83
2022-11-08T08:16:01.655Z,12.92
2022-11-08T08:18:30.272Z,12.93
2022-11-08T08:20:59.960Z,12.99
2022-11-08T08:23:28.168Z,13.01
2022-11-08T08:25:56.170Z,12.99
2022-11-08T08:28:23.890Z,13.12
2022-11-08T08:30:51.693Z,13.08
2022-11-08T08:33:28.225Z,13.14
2022-11-08T08:35:56.577Z,13.14
2022-11-08T08:38:26.097Z,13.14
2022-11-08T08:40:53.971Z,13.19
2022-11-08T08:43:22.262Z,13.20
2022-11-08T08:45:50.227Z,13.26
2022-11-08T08:48:18.395Z,13.26
2022-11-08T08:50:46.190Z,13.31
2022-11-08T08:53:14.446Z,13.41
2022-11-08T08:55:43.514Z,13.45
2022-11-08T08:58:12.209Z,13.50
2022-11-08T09:03:27.627Z,13.52
2022-11-08T09:05:57.453Z,13.47
2022-11-08T09:08:25.667Z,13.56
2022-11-08T09:10:59.223Z,13.61
2022-11-08T09:13:28.776Z,13.62
2022-11-08T09:15:56.499Z,13.65
2022-11-08T09:18:24.330Z,13.72
2022-11-08T09:20:52.096Z,13.78
2022-11-08T09:23:20.182Z,13.82
2022-11-08T09:25:48.105Z,13.77
2022-11-08T09:28:18.759Z,13.78
2022-11-08T09:30:46.508Z,13.78
2022-11-08T09:33:14.229Z,13.71
2022-11-08T09:35:42.015Z,13.67
2022-11-08T09:38:09.746Z,13.71
2022-11-08T09:40:41.486Z,13.73
2022-11-08T09:43:33.563Z,13.71
2022-11-08T09:46:01.392Z,13.68
2022-11-08T09:48:33.035Z,13.76
2022-11-08T09:51:06.033Z,13.77
2022-11-08T09:53:41.716Z,13.77
2022-11-08T09:56:17.642Z,13.72
2022-11-08T09:58:54.276Z,13.75
2022-11-08T10:01:27.269Z,13.80
2022-11-08T10:03:58.094Z,13.82
2022-11-08T10:06:44.913Z,13.86
2022-11-08T10:09:25.783Z,13.88
2022-11-08T10:12:03.961Z,13.92
2022-11-08T10:14:52.314Z,13.93
2022-11-08T10:17:38.959Z,13.95
2022-11-08T10:20:20.226Z,13.97
2022-11-08T10:22:55.636Z,13.96
2022-11-08T10:25:26.197Z,13.94
2022-11-08T10:27:57.324Z,13.99
2022-11-08T10:30:33.492Z,14.02
2022-11-08T10:33:01.870Z,14.08
2022-11-08T10:35:37.102Z,14.12
2022-11-08T10:38:17.821Z,14.20
2022-11-08T10:40:55.313Z,14.26
2022-11-08T10:43:31.130Z,14.28
2022-11-08T10:46:00.196Z,14.23
2022-11-08T10:48:28.050Z,14.36
2022-11-08T10:50:56.027Z,14.43
2022-11-08T10:53:27.100Z,14.43
2022-11-08T10:56:01.132Z,14.45
2022-11-08T10:58:36.854Z,14.45
2022-11-08T11:01:14.126Z,14.50
2022-11-08T11:03:42.323Z,14.51
2022-11-08T11:06:24.254Z,14.57
2022-11-08T11:08:56.080Z,14.58
2022-11-08T11:11:27.355Z,14.59
2022-11-08T11:14:16.313Z,14.69
2022-11-08T11:16:56.359Z,14.67
2022-11-08T11:19:24.982Z,14.68
2022-11-08T11:21:57.326Z,14.69
2022-11-08T11:24:25.636Z,14.75
2022-11-08T11:27:03.277Z,14.79
2022-11-08T11:29:32.483Z,14.87
2022-11-08T11:32:25.810Z,14.90
2022-11-08T11:34:57.340Z,14.97
2022-11-08T11:37:40.098Z,14.95
2022-11-08T11:40:16.906Z,15.03
2022-11-08T11:42:53.737Z,15.09
2022-11-08T11:45:28.731Z,15.08
2022-11-08T11:47:59.023Z,15.19
2022-11-08T11:50:33.536Z,15.19
2022-11-08T11:53:05.955Z,15.13
2022-11-08T11:55:51.751Z,15.26
2022-11-08T11:58:33.659Z,15.32
2022-11-08T12:01:13.144Z,15.32
2022-11-08T12:03:57.819Z,15.24
2022-11-08T12:06:37.231Z,15.29
2022-11-08T12:09:20.333Z,15.27
2022-11-08T12:11:59.775Z,15.26
2022-11-08T12:14:42.238Z,15.24
2022-11-08T12:17:27.839Z,15.27
2022-11-08T12:20:13.527Z,15.30
2022-11-08T12:22:52.218Z,15.32
2022-11-08T12:25:25.968Z,15.35
2022-11-08T12:27:57.496Z,15.35
2022-11-08T12:30:31.893Z,15.42
2022-11-08T12:33:20.814Z,15.45
2022-11-08T12:36:04.313Z,15.53
2022-11-08T12:38:38.839Z,15.53
2022-11-08T12:41:15.520Z,15.55
2022-11-08T12:44:00.818Z,15.52
2022-11-08T12:46:34.170Z,15.51
2022-11-08T12:49:24.503Z,15.53
2022-11-08T12:52:05.146Z,15.56
2022-11-08T12:54:36.831Z,15.61
2022-11-08T12:57:11.289Z,15.63
2022-11-08T12:59:43.046Z,15.57
2022-11-08T13:02:19.516Z,15.52
2022-11-08T13:04:56.162Z,15.55
2022-11-08T13:07:34.935Z,15.53
2022-11-08T13:10:12.868Z,15.57
2022-11-08T13:13:04.657Z,15.60
2022-11-08T13:15:32.438Z,15.56
2022-11-08T13:18:34.088Z,15.59
2022-11-08T13:21:01.872Z,15.39
2022-11-08T13:23:33.045Z,15.46
2022-11-08T13:26:22.901Z,15.58
2022-11-08T13:28:51.743Z,15.52
2022-11-08T13:31:45.605Z,15.58
2022-11-08T13:34:22.775Z,15.53
2022-11-08T13:37:13.517Z,15.52
2022-11-08T13:40:17.604Z,15.47
2022-11-08T13:43:15.798Z,15.46
2022-11-08T13:45:44.970Z,15.39
2022-11-08T13:48:38.417Z,15.34
2022-11-08T13:51:25.130Z,15.34
2022-11-08T13:53:57.813Z,15.26
2022-11-08T13:56:48.120Z,15.38
2022-11-08T14:00:00.205Z,15.30
2022-11-08T14:02:33.489Z,15.20
2022-11-08T14:05:22.943Z,15.39
2022-11-08T14:08:01.708Z,15.40
2022-11-08T14:10:42.377Z,15.30
2022-11-08T14:13:19.316Z,15.40
2022-11-08T14:15:55.732Z,15.43
2022-11-08T14:18:27.429Z,15.24
2022-11-08T14:20:57.769Z,15.40
2022-11-08T14:23:29.184Z,15.39
2022-11-08T14:25:59.168Z,15.38
2022-11-08T14:28:29.378Z,15.36
2022-11-08T14:30:59.914Z,15.36
2022-11-08T14:33:28.907Z,15.37
2022-11-08T14:35:59.537Z,15.40
2022-11-08T14:38:28.066Z,15.43
2022-11-08T14:40:59.526Z,15.43
2022-11-08T14:43:30.697Z,15.44
2022-11-08T14:46:00.866Z,15.43
2022-11-08T14:48:30.934Z,15.42
2022-11-08T14:51:03.514Z,15.44
2022-11-08T14:53:32.933Z,15.42
2022-11-08T14:56:18.082Z,15.31
2022-11-08T14:58:47.201Z,15.38
2022-11-08T15:01:20.227Z,15.41
2022-11-08T15:03:54.279Z,15.37
2022-11-08T15:06:23.577Z,15.47
2022-11-08T15:08:54.775Z,15.48
2022-11-08T15:11:31.629Z,15.52
2022-11-08T15:14:02.020Z,15.57
2022-11-08T15:16:40.040Z,15.45
2022-11-08T15:19:38.907Z,15.59
2022-11-08T15:22:25.758Z,15.56
2022-11-08T15:25:02.833Z,15.58
2022-11-08T15:27:30.776Z,15.41
2022-11-08T15:30:03.791Z,15.59
2022-11-08T15:32:37.860Z,15.49
2022-11-08T15:35:08.165Z,15.57
2022-11-08T15:37:39.380Z,15.56
2022-11-08T15:40:17.025Z,15.62
2022-11-08T15:42:46.128Z,15.66
2022-11-08T15:45:25.597Z,15.66
2022-11-08T15:48:02.607Z,15.64
2022-11-08T15:50:33.143Z,15.46
2022-11-08T15:53:04.907Z,15.65
2022-11-08T15:55:37.458Z,15.63
2022-11-08T15:58:05.738Z,15.65
2022-11-08T16:00:36.340Z,15.66
2022-11-08T16:03:05.907Z,15.66
2022-11-08T16:05:33.625Z,15.58
2022-11-08T16:08:01.512Z,15.66
2022-11-08T16:10:31.917Z,15.63
2022-11-08T16:13:01.408Z,15.55
2022-11-08T16:15:32.574Z,15.63
2022-11-08T16:18:00.699Z,15.61
2022-11-08T16:20:31.661Z,15.62
2022-11-08T16:23:01.226Z,15.65
2022-11-08T16:25:30.535Z,15.67
2022-11-08T16:28:03.641Z,15.68
2022-11-08T16:30:33.989Z,15.72
2022-11-08T16:33:18.489Z,15.71
2022-11-08T16:35:47.983Z,15.72
2022-11-08T16:38:16.351Z,15.71
2022-11-08T16:40:44.190Z,15.72
2022-11-08T16:43:12.734Z,15.72
2022-11-08T16:46:07.754Z,15.72
2022-11-08T16:48:28.332Z,15.64
2022-11-08T16:51:00.420Z,15.69
2022-11-08T16:53:29.300Z,15.66
2022-11-08T16:55:57.940Z,15.58
2022-11-08T16:58:26.054Z,15.46
2022-11-08T17:00:53.963Z,15.64
2022-11-08T17:03:23.138Z,15.64
2022-11-08T17:05:51.925Z,15.59
2022-11-08T17:08:21.306Z,15.65
2022-11-08T17:10:49.232Z,15.69
2022-11-08T17:13:19.724Z,15.68
2022-11-08T17:15:49.138Z,15.57
2022-11-08T17:18:19.285Z,15.67
2022-11-08T17:20:47.432Z,15.64
2022-11-08T17:23:16.333Z,15.69
2022-11-08T17:25:45.367Z,15.63
2022-11-08T17:28:14.069Z,15.58
2022-11-08T17:30:44.510Z,15.70
2022-11-08T17:33:28.691Z,15.69
2022-11-08T17:35:56.378Z,15.68
2022-11-08T17:38:24.053Z,15.67
2022-11-08T17:40:53.199Z,15.64
2022-11-08T17:43:21.047Z,15.65
2022-11-08T17:45:51.028Z,15.57
2022-11-08T17:48:18.791Z,15.68
2022-11-08T17:50:48.167Z,15.60
2022-11-08T17:53:16.029Z,15.66
2022-11-08T17:55:43.954Z,15.67
2022-11-08T17:58:13.012Z,15.58
2022-11-08T18:00:40.827Z,15.67
2022-11-08T18:03:12.949Z,15.66
2022-11-08T18:05:40.687Z,15.64
2022-11-08T18:08:08.396Z,15.68
2022-11-08T18:10:36.472Z,15.62
2022-11-08T18:13:04.316Z,15.68
2022-11-08T18:15:33.382Z,15.72
2022-11-08T18:18:01.247Z,15.58
2022-11-08T18:20:28.982Z,15.69
2022-11-08T18:22:56.725Z,15.64
2022-11-08T18:25:24.655Z,15.70
2022-11-08T18:27:52.407Z,15.67
2022-11-08T18:30:20.155Z,15.68
2022-11-08T18:32:49.278Z,15.66
2022-11-08T18:35:17.236Z,15.65
2022-11-08T18:37:44.970Z,15.65
2022-11-08T18:40:13.428Z,15.70
2022-11-08T18:42:41.295Z,15.65
2022-11-08T18:45:10.254Z,15.67
2022-11-08T18:47:38.004Z,15.66
2022-11-08T18:50:09.470Z,15.68
2022-11-08T18:52:37.689Z,15.68
2022-11-08T18:55:07.134Z,15.65
2022-11-08T18:57:34.888Z,15.64
2022-11-08T19:00:03.065Z,15.54
2022-11-08T19:02:30.824Z,15.65
2022-11-08T19:04:59.126Z,15.63
2022-11-08T19:07:28.224Z,15.64
2022-11-08T19:09:59.817Z,15.68
2022-11-08T19:12:28.959Z,15.67
2022-11-08T19:14:56.736Z,15.68
2022-11-08T19:17:24.550Z,15.62
2022-11-08T19:19:52.354Z,15.69
2022-11-08T19:22:23.319Z,15.67
2022-11-08T19:24:52.478Z,15.68
2022-11-08T19:27:21.145Z,15.68
2022-11-08T19:29:49.299Z,15.68
2022-11-08T19:32:19.474Z,15.64
2022-11-08T19:34:49.903Z,15.63
2022-11-08T19:37:17.669Z,15.63
2022-11-08T19:39:45.415Z,15.55
2022-11-08T19:42:14.582Z,15.63
2022-11-08T19:44:42.315Z,15.62
2022-11-08T19:47:10.203Z,15.64
2022-11-08T19:49:38.118Z,15.55
2022-11-08T19:52:06.217Z,15.60
2022-11-08T19:54:34.052Z,15.60
2022-11-08T19:57:04.750Z,15.53
2022-11-08T19:59:34.479Z,15.53
2022-11-08T20:02:02.258Z,15.49
2022-11-08T20:04:30.081Z,15.55
2022-11-08T20:06:57.914Z,15.54
2022-11-08T20:09:30.203Z,15.53
2022-11-08T20:11:58.482Z,15.51
2022-11-08T20:14:26.253Z,15.45
2022-11-08T20:16:55.578Z,15.42
2022-11-08T20:19:23.286Z,15.41
2022-11-08T20:21:51.037Z,15.44
2022-11-08T20:24:18.862Z,15.40
2022-11-08T20:26:46.599Z,15.47
2022-11-08T20:29:15.120Z,15.48
2022-11-08T20:31:42.923Z,15.47
2022-11-08T20:34:13.086Z,15.48
2022-11-08T20:36:41.574Z,15.47
2022-11-08T20:39:10.283Z,15.44
2022-11-08T20:41:39.097Z,15.21
2022-11-08T20:44:07.755Z,15.41
2022-11-08T20:46:36.770Z,15.43
2022-11-08T20:49:05.430Z,15.44
2022-11-08T20:51:34.956Z,15.49
2022-11-08T20:54:03.121Z,15.46
2022-11-08T20:56:31.259Z,15.34
2022-11-08T20:58:59.254Z,15.37
2022-11-08T21:01:29.507Z,15.29
2022-11-08T21:03:57.810Z,15.41
2022-11-08T21:06:27.182Z,15.44
2022-11-08T21:09:03.235Z,15.47
2022-11-08T21:11:36.402Z,15.44
2022-11-08T21:14:04.736Z,15.48
2022-11-08T21:16:46.926Z,15.51
2022-11-08T21:19:20.544Z,15.46
2022-11-08T21:21:48.347Z,15.47
2022-11-08T21:24:18.017Z,15.48
2022-11-08T21:26:45.724Z,15.49
2022-11-08T21:29:13.460Z,15.53
2022-11-08T21:31:41.164Z,15.53
2022-11-08T21:34:09.751Z,15.55
2022-11-08T21:36:37.502Z,15.49
2022-11-08T21:39:05.333Z,15.52
2022-11-08T21:41:34.407Z,15.52
2022-11-08T21:44:02.187Z,15.53
2022-11-08T21:46:29.958Z,15.49
2022-11-08T21:48:59.408Z,15.48
2022-11-08T21:51:29.231Z,15.53
2022-11-08T21:53:58.307Z,15.52
2022-11-08T21:56:29.251Z,15.51
2022-11-08T21:58:58.817Z,15.43
2022-11-08T22:01:30.221Z,15.41
2022-11-08T22:03:59.082Z,15.43
2022-11-08T22:06:27.158Z,15.40
2022-11-08T22:08:55.210Z,15.37
2022-11-08T22:11:23.054Z,15.42
2022-11-08T22:13:50.872Z,15.41
2022-11-08T22:16:20.009Z,15.40
2022-11-08T22:19:04.251Z,15.40
2022-11-08T22:21:40.005Z,15.40
2022-11-08T22:24:10.229Z,15.39
2022-11-08T22:26:38.258Z,15.31
2022-11-08T22:29:06.320Z,15.37
2022-11-08T22:31:35.728Z,15.35
2022-11-08T22:34:03.718Z,15.17
2022-11-08T22:36:31.466Z,15.38
2022-11-08T22:38:59.285Z,15.39
2022-11-08T22:41:27.116Z,15.37
2022-11-08T22:43:54.885Z,15.39
2022-11-08T22:46:23.069Z,15.40
2022-11-08T22:48:52.177Z,15.39
2022-11-08T22:51:19.905Z,15.41
2022-11-08T22:53:47.650Z,15.41
2022-11-08T22:56:15.418Z,15.43
2022-11-08T22:58:43.289Z,15.29
2022-11-08T23:01:13.038Z,15.39
2022-11-08T23:03:41.128Z,15.39
2022-11-08T23:06:10.371Z,15.37
2022-11-08T23:08:38.204Z,15.38
2022-11-08T23:11:23.446Z,15.37
2022-11-08T23:14:08.777Z,15.36
2022-11-08T23:16:41.256Z,15.34
2022-11-08T23:19:29.524Z,15.39
2022-11-08T23:22:16.387Z,15.33
2022-11-08T23:24:44.750Z,15.32
2022-11-08T23:27:31.918Z,15.39
2022-11-08T23:30:17.253Z,15.40
2022-11-08T23:32:46.629Z,15.40
2022-11-08T23:35:15.511Z,15.37
2022-11-08T23:37:44.824Z,15.29
2022-11-08T23:40:31.864Z,15.26
2022-11-08T23:43:18.203Z,15.36
2022-11-08T23:45:46.060Z,15.30
2022-11-08T23:48:13.716Z,15.36
2022-11-08T23:50:46.917Z,15.38
2022-11-08T23:53:16.314Z,15.37
2022-11-08T23:55:44.523Z,15.36
2022-11-08T23:58:13.290Z,15.36
